sensor_id;sensor_type;location;lat;lon;timestamp;P1;durP1;ratioP1;P2;durP2;ratioP2
46318;SDS011;32042;50.916;2.926;2023-07-02T00:00:27;42.45;;;19.42;;
46318;SDS011;32042;50.916;2.926;2023-07-02T00:02:53;41.30;;;18.52;;
46318;SDS011;32042;50.916;2.926;2023-07-02T00:05:18;35.58;;;18.85;;
46318;SDS011;32042;50.916;2.926;2023-07-02T00:07:44;50.65;;;20.25;;
46318;SDS011;32042;50.916;2.926;2023-07-02T00:10:10;47.42;;;19.83;;
46318;SDS011;32042;50.916;2.926;2023-07-02T00:12:36;44.38;;;18.13;;
46318;SDS011;32042;50.916;2.926;2023-07-02T00:15:02;40.15;;;20.25;;
46318;SDS011;32042;50.916;2.926;2023-07-02T00:17:28;48.15;;;19.65;;
46318;SDS011;32042;50.916;2.926;2023-07-02T00:19:54;43.72;;;19.63;;
46318;SDS011;32042;50.916;2.926;2023-07-02T00:22:20;43.15;;;20.50;;
46318;SDS011;32042;50.916;2.926;2023-07-02T00:24:46;49.10;;;20.52;;
46318;SDS011;32042;50.916;2.926;2023-07-02T00:27:12;40.50;;;19.35;;
46318;SDS011;32042;50.916;2.926;2023-07-02T00:29:38;44.95;;;20.38;;
46318;SDS011;32042;50.916;2.926;2023-07-02T00:32:03;40.22;;;19.35;;
46318;SDS011;32042;50.916;2.926;2023-07-02T00:34:30;49.38;;;19.92;;
46318;SDS011;32042;50.916;2.926;2023-07-02T00:36:55;44.00;;;20.92;;
46318;SDS011;32042;50.916;2.926;2023-07-02T00:39:21;44.53;;;20.52;;
46318;SDS011;32042;50.916;2.926;2023-07-02T00:41:47;42.40;;;19.52;;
46318;SDS011;32042;50.916;2.926;2023-07-02T00:44:12;42.83;;;20.60;;
46318;SDS011;32042;50.916;2.926;2023-07-02T00:46:38;39.85;;;19.30;;
46318;SDS011;32042;50.916;2.926;2023-07-02T00:49:04;36.85;;;18.90;;
46318;SDS011;32042;50.916;2.926;2023-07-02T00:51:31;42.03;;;19.63;;
46318;SDS011;32042;50.916;2.926;2023-07-02T00:53:57;41.75;;;19.40;;
46318;SDS011;32042;50.916;2.926;2023-07-02T00:56:24;40.03;;;19.73;;
46318;SDS011;32042;50.916;2.926;2023-07-02T00:58:51;48.83;;;19.35;;
46318;SDS011;32042;50.916;2.926;2023-07-02T01:01:23;38.45;;;18.70;;
46318;SDS011;32042;50.916;2.926;2023-07-02T01:03:53;38.25;;;18.95;;
46318;SDS011;32042;50.916;2.926;2023-07-02T01:06:25;40.78;;;19.35;;
46318;SDS011;32042;50.916;2.926;2023-07-02T01:08:53;38.90;;;20.73;;
46318;SDS011;32042;50.916;2.926;2023-07-02T01:11:21;45.95;;;19.13;;
46318;SDS011;32042;50.916;2.926;2023-07-02T01:13:53;41.97;;;20.05;;
46318;SDS011;32042;50.916;2.926;2023-07-02T01:16:24;34.83;;;19.55;;
46318;SDS011;32042;50.916;2.926;2023-07-02T01:18:49;35.33;;;18.70;;
46318;SDS011;32042;50.916;2.926;2023-07-02T01:21:19;36.08;;;19.02;;
46318;SDS011;32042;50.916;2.926;2023-07-02T01:23:46;47.15;;;20.33;;
46318;SDS011;32042;50.916;2.926;2023-07-02T01:26:12;40.58;;;19.60;;
46318;SDS011;32042;50.916;2.926;2023-07-02T01:28:39;38.15;;;19.55;;
46318;SDS011;32042;50.916;2.926;2023-07-02T01:31:04;36.03;;;18.70;;
46318;SDS011;32042;50.916;2.926;2023-07-02T01:33:30;40.88;;;19.33;;
46318;SDS011;32042;50.916;2.926;2023-07-02T01:35:56;40.75;;;18.65;;
46318;SDS011;32042;50.916;2.926;2023-07-02T01:38:22;45.15;;;20.65;;
46318;SDS011;32042;50.916;2.926;2023-07-02T01:40:48;42.85;;;18.67;;
46318;SDS011;32042;50.916;2.926;2023-07-02T01:43:13;48.95;;;26.67;;
46318;SDS011;32042;50.916;2.926;2023-07-02T01:45:40;55.45;;;30.83;;
46318;SDS011;32042;50.916;2.926;2023-07-02T01:48:07;54.72;;;29.33;;
46318;SDS011;32042;50.916;2.926;2023-07-02T01:50:32;53.90;;;27.88;;
46318;SDS011;32042;50.916;2.926;2023-07-02T01:52:58;45.78;;;25.05;;
46318;SDS011;32042;50.916;2.926;2023-07-02T01:55:24;47.92;;;24.67;;
46318;SDS011;32042;50.916;2.926;2023-07-02T01:57:50;48.13;;;23.35;;
46318;SDS011;32042;50.916;2.926;2023-07-02T02:00:16;40.95;;;21.17;;
46318;SDS011;32042;50.916;2.926;2023-07-02T02:02:42;45.95;;;21.10;;
46318;SDS011;32042;50.916;2.926;2023-07-02T02:05:08;46.90;;;19.65;;
46318;SDS011;32042;50.916;2.926;2023-07-02T02:07:35;42.42;;;19.13;;
46318;SDS011;32042;50.916;2.926;2023-07-02T02:10:02;36.08;;;18.85;;
46318;SDS011;32042;50.916;2.926;2023-07-02T02:12:28;45.20;;;19.67;;
46318;SDS011;32042;50.916;2.926;2023-07-02T02:14:55;42.53;;;18.25;;
46318;SDS011;32042;50.916;2.926;2023-07-02T02:17:21;35.25;;;18.25;;
46318;SDS011;32042;50.916;2.926;2023-07-02T02:19:48;41.58;;;19.05;;
46318;SDS011;32042;50.916;2.926;2023-07-02T02:22:14;40.63;;;18.75;;
46318;SDS011;32042;50.916;2.926;2023-07-02T02:24:41;42.40;;;17.83;;
46318;SDS011;32042;50.916;2.926;2023-07-02T02:27:07;36.13;;;18.83;;
46318;SDS011;32042;50.916;2.926;2023-07-02T02:29:32;36.45;;;16.95;;
46318;SDS011;32042;50.916;2.926;2023-07-02T02:31:58;32.75;;;16.42;;
46318;SDS011;32042;50.916;2.926;2023-07-02T02:34:25;36.15;;;16.73;;
46318;SDS011;32042;50.916;2.926;2023-07-02T02:36:51;35.70;;;17.40;;
46318;SDS011;32042;50.916;2.926;2023-07-02T02:39:20;35.47;;;17.52;;
46318;SDS011;32042;50.916;2.926;2023-07-02T02:41:47;34.15;;;16.80;;
46318;SDS011;32042;50.916;2.926;2023-07-02T02:44:13;37.25;;;16.92;;
46318;SDS011;32042;50.916;2.926;2023-07-02T02:46:39;35.10;;;16.88;;
46318;SDS011;32042;50.916;2.926;2023-07-02T02:49:06;39.55;;;16.33;;
46318;SDS011;32042;50.916;2.926;2023-07-02T02:51:33;41.65;;;17.00;;
46318;SDS011;32042;50.916;2.926;2023-07-02T02:53:59;38.63;;;17.25;;
46318;SDS011;32042;50.916;2.926;2023-07-02T02:56:25;31.70;;;16.15;;
46318;SDS011;32042;50.916;2.926;2023-07-02T02:58:50;31.23;;;15.55;;
46318;SDS011;32042;50.916;2.926;2023-07-02T03:01:16;28.50;;;15.05;;
46318;SDS011;32042;50.916;2.926;2023-07-02T03:03:42;37.90;;;16.55;;
46318;SDS011;32042;50.916;2.926;2023-07-02T03:06:10;30.00;;;15.23;;
46318;SDS011;32042;50.916;2.926;2023-07-02T03:08:38;29.75;;;14.38;;
46318;SDS011;32042;50.916;2.926;2023-07-02T03:11:04;26.52;;;16.10;;
46318;SDS011;32042;50.916;2.926;2023-07-02T03:13:30;29.33;;;14.60;;
46318;SDS011;32042;50.916;2.926;2023-07-02T03:15:55;28.73;;;14.32;;
46318;SDS011;32042;50.916;2.926;2023-07-02T03:18:21;26.00;;;13.73;;
46318;SDS011;32042;50.916;2.926;2023-07-02T03:20:47;31.05;;;14.98;;
46318;SDS011;32042;50.916;2.926;2023-07-02T03:23:12;30.80;;;15.00;;
46318;SDS011;32042;50.916;2.926;2023-07-02T03:25:38;27.40;;;14.60;;
46318;SDS011;32042;50.916;2.926;2023-07-02T03:28:04;26.25;;;14.32;;
46318;SDS011;32042;50.916;2.926;2023-07-02T03:30:29;27.02;;;14.88;;
46318;SDS011;32042;50.916;2.926;2023-07-02T03:32:55;33.35;;;15.77;;
46318;SDS011;32042;50.916;2.926;2023-07-02T03:35:22;31.42;;;13.85;;
46318;SDS011;32042;50.916;2.926;2023-07-02T03:37:48;29.17;;;15.07;;
46318;SDS011;32042;50.916;2.926;2023-07-02T03:40:14;30.05;;;14.98;;
46318;SDS011;32042;50.916;2.926;2023-07-02T03:42:39;24.25;;;14.90;;
46318;SDS011;32042;50.916;2.926;2023-07-02T03:45:05;27.98;;;14.55;;
46318;SDS011;32042;50.916;2.926;2023-07-02T03:47:31;25.63;;;14.45;;
46318;SDS011;32042;50.916;2.926;2023-07-02T03:49:57;34.92;;;15.73;;
46318;SDS011;32042;50.916;2.926;2023-07-02T03:52:22;29.27;;;15.10;;
46318;SDS011;32042;50.916;2.926;2023-07-02T03:54:48;29.63;;;15.38;;
46318;SDS011;32042;50.916;2.926;2023-07-02T03:57:14;25.65;;;14.93;;
46318;SDS011;32042;50.916;2.926;2023-07-02T03:59:39;31.35;;;15.70;;
46318;SDS011;32042;50.916;2.926;2023-07-02T04:02:05;22.85;;;14.20;;
46318;SDS011;32042;50.916;2.926;2023-07-02T04:04:31;30.95;;;15.23;;
46318;SDS011;32042;50.916;2.926;2023-07-02T04:06:56;31.27;;;14.68;;
46318;SDS011;32042;50.916;2.926;2023-07-02T04:09:22;29.42;;;15.27;;
46318;SDS011;32042;50.916;2.926;2023-07-02T04:11:48;30.95;;;15.10;;
46318;SDS011;32042;50.916;2.926;2023-07-02T04:14:13;35.25;;;15.50;;
46318;SDS011;32042;50.916;2.926;2023-07-02T04:16:39;23.73;;;15.00;;
46318;SDS011;32042;50.916;2.926;2023-07-02T04:19:05;28.60;;;15.00;;
46318;SDS011;32042;50.916;2.926;2023-07-02T04:21:30;26.42;;;14.90;;
46318;SDS011;32042;50.916;2.926;2023-07-02T04:23:56;32.95;;;15.38;;
46318;SDS011;32042;50.916;2.926;2023-07-02T04:26:22;27.00;;;14.03;;
46318;SDS011;32042;50.916;2.926;2023-07-02T04:28:47;21.42;;;13.32;;
46318;SDS011;32042;50.916;2.926;2023-07-02T04:31:13;31.08;;;15.23;;
46318;SDS011;32042;50.916;2.926;2023-07-02T04:33:39;25.55;;;15.30;;
46318;SDS011;32042;50.916;2.926;2023-07-02T04:36:05;33.28;;;14.85;;
46318;SDS011;32042;50.916;2.926;2023-07-02T04:38:31;31.35;;;14.52;;
46318;SDS011;32042;50.916;2.926;2023-07-02T04:40:56;29.23;;;14.45;;
46318;SDS011;32042;50.916;2.926;2023-07-02T04:43:30;27.83;;;13.75;;
46318;SDS011;32042;50.916;2.926;2023-07-02T04:45:58;28.27;;;14.77;;
46318;SDS011;32042;50.916;2.926;2023-07-02T04:48:24;26.13;;;13.32;;
46318;SDS011;32042;50.916;2.926;2023-07-02T04:50:50;27.52;;;13.93;;
46318;SDS011;32042;50.916;2.926;2023-07-02T04:53:16;26.30;;;13.77;;
46318;SDS011;32042;50.916;2.926;2023-07-02T04:55:41;25.10;;;14.07;;
46318;SDS011;32042;50.916;2.926;2023-07-02T04:58:08;28.10;;;13.77;;
46318;SDS011;32042;50.916;2.926;2023-07-02T05:00:33;21.23;;;12.95;;
46318;SDS011;32042;50.916;2.926;2023-07-02T05:02:59;25.88;;;13.25;;
46318;SDS011;32042;50.916;2.926;2023-07-02T05:05:25;26.35;;;13.57;;
46318;SDS011;32042;50.916;2.926;2023-07-02T05:07:50;24.25;;;12.18;;
46318;SDS011;32042;50.916;2.926;2023-07-02T05:10:16;27.25;;;12.43;;
46318;SDS011;32042;50.916;2.926;2023-07-02T05:12:42;21.50;;;12.45;;
46318;SDS011;32042;50.916;2.926;2023-07-02T05:15:07;25.10;;;13.13;;
46318;SDS011;32042;50.916;2.926;2023-07-02T05:17:33;23.67;;;11.57;;
46318;SDS011;32042;50.916;2.926;2023-07-02T05:20:01;20.70;;;11.48;;
46318;SDS011;32042;50.916;2.926;2023-07-02T05:22:29;20.45;;;11.20;;
46318;SDS011;32042;50.916;2.926;2023-07-02T05:24:54;19.40;;;10.70;;
46318;SDS011;32042;50.916;2.926;2023-07-02T05:27:20;26.35;;;11.43;;
46318;SDS011;32042;50.916;2.926;2023-07-02T05:29:45;23.42;;;11.40;;
46318;SDS011;32042;50.916;2.926;2023-07-02T05:32:11;25.02;;;11.18;;
46318;SDS011;32042;50.916;2.926;2023-07-02T05:34:37;25.95;;;11.48;;
46318;SDS011;32042;50.916;2.926;2023-07-02T05:37:02;19.50;;;11.10;;
46318;SDS011;32042;50.916;2.926;2023-07-02T05:39:28;21.38;;;11.52;;
46318;SDS011;32042;50.916;2.926;2023-07-02T05:41:56;22.73;;;11.30;;
46318;SDS011;32042;50.916;2.926;2023-07-02T05:44:21;21.83;;;11.10;;
46318;SDS011;32042;50.916;2.926;2023-07-02T05:46:47;17.23;;;9.73;;
46318;SDS011;32042;50.916;2.926;2023-07-02T05:49:13;26.17;;;11.98;;
46318;SDS011;32042;50.916;2.926;2023-07-02T05:51:39;25.75;;;12.93;;
46318;SDS011;32042;50.916;2.926;2023-07-02T05:54:04;24.70;;;12.60;;
46318;SDS011;32042;50.916;2.926;2023-07-02T05:56:30;24.42;;;12.40;;
46318;SDS011;32042;50.916;2.926;2023-07-02T05:58:56;23.83;;;12.48;;
46318;SDS011;32042;50.916;2.926;2023-07-02T06:01:22;21.98;;;11.95;;
46318;SDS011;32042;50.916;2.926;2023-07-02T06:03:49;34.30;;;13.18;;
46318;SDS011;32042;50.916;2.926;2023-07-02T06:06:15;29.38;;;12.55;;
46318;SDS011;32042;50.916;2.926;2023-07-02T06:08:40;23.13;;;12.02;;
46318;SDS011;32042;50.916;2.926;2023-07-02T06:11:06;27.00;;;13.52;;
46318;SDS011;32042;50.916;2.926;2023-07-02T06:13:32;26.27;;;12.25;;
46318;SDS011;32042;50.916;2.926;2023-07-02T06:15:57;27.98;;;13.60;;
46318;SDS011;32042;50.916;2.926;2023-07-02T06:18:23;29.38;;;14.23;;
46318;SDS011;32042;50.916;2.926;2023-07-02T06:20:49;25.75;;;13.18;;
46318;SDS011;32042;50.916;2.926;2023-07-02T06:23:15;23.23;;;12.57;;
46318;SDS011;32042;50.916;2.926;2023-07-02T06:25:40;28.98;;;14.25;;
46318;SDS011;32042;50.916;2.926;2023-07-02T06:28:06;22.13;;;12.85;;
46318;SDS011;32042;50.916;2.926;2023-07-02T06:30:32;19.88;;;12.25;;
46318;SDS011;32042;50.916;2.926;2023-07-02T06:32:57;25.25;;;13.07;;
46318;SDS011;32042;50.916;2.926;2023-07-02T06:35:23;27.45;;;14.20;;
46318;SDS011;32042;50.916;2.926;2023-07-02T06:37:49;26.83;;;12.52;;
46318;SDS011;32042;50.916;2.926;2023-07-02T06:40:15;25.92;;;13.02;;
46318;SDS011;32042;50.916;2.926;2023-07-02T06:42:40;28.25;;;13.70;;
46318;SDS011;32042;50.916;2.926;2023-07-02T06:45:06;32.17;;;13.13;;
46318;SDS011;32042;50.916;2.926;2023-07-02T06:47:32;26.33;;;12.05;;
46318;SDS011;32042;50.916;2.926;2023-07-02T06:49:58;28.77;;;12.40;;
46318;SDS011;32042;50.916;2.926;2023-07-02T06:52:24;27.13;;;10.88;;
46318;SDS011;32042;50.916;2.926;2023-07-02T06:54:50;30.88;;;11.82;;
46318;SDS011;32042;50.916;2.926;2023-07-02T06:57:16;24.80;;;11.13;;
46318;SDS011;32042;50.916;2.926;2023-07-02T06:59:42;26.50;;;11.73;;
46318;SDS011;32042;50.916;2.926;2023-07-02T07:02:08;25.33;;;13.15;;
46318;SDS011;32042;50.916;2.926;2023-07-02T07:04:34;23.73;;;12.63;;
46318;SDS011;32042;50.916;2.926;2023-07-02T07:07:00;28.40;;;12.57;;
46318;SDS011;32042;50.916;2.926;2023-07-02T07:09:28;25.58;;;11.93;;
46318;SDS011;32042;50.916;2.926;2023-07-02T07:11:54;24.63;;;12.07;;
46318;SDS011;32042;50.916;2.926;2023-07-02T07:14:19;28.15;;;11.88;;
46318;SDS011;32042;50.916;2.926;2023-07-02T07:16:45;27.80;;;12.95;;
46318;SDS011;32042;50.916;2.926;2023-07-02T07:19:11;31.45;;;12.75;;
46318;SDS011;32042;50.916;2.926;2023-07-02T07:21:36;25.20;;;12.13;;
46318;SDS011;32042;50.916;2.926;2023-07-02T07:24:02;28.58;;;11.93;;
46318;SDS011;32042;50.916;2.926;2023-07-02T07:26:28;24.95;;;11.93;;
46318;SDS011;32042;50.916;2.926;2023-07-02T07:28:53;23.70;;;11.60;;
46318;SDS011;32042;50.916;2.926;2023-07-02T07:31:21;24.75;;;11.40;;
46318;SDS011;32042;50.916;2.926;2023-07-02T07:33:46;21.48;;;10.55;;
46318;SDS011;32042;50.916;2.926;2023-07-02T07:36:12;26.45;;;12.52;;
46318;SDS011;32042;50.916;2.926;2023-07-02T07:38:39;19.58;;;10.85;;
46318;SDS011;32042;50.916;2.926;2023-07-02T07:41:04;22.75;;;11.02;;
46318;SDS011;32042;50.916;2.926;2023-07-02T07:43:30;24.15;;;11.05;;
46318;SDS011;32042;50.916;2.926;2023-07-02T07:45:56;20.35;;;10.18;;
46318;SDS011;32042;50.916;2.926;2023-07-02T07:48:21;22.75;;;9.52;;
46318;SDS011;32042;50.916;2.926;2023-07-02T07:50:47;22.05;;;10.65;;
46318;SDS011;32042;50.916;2.926;2023-07-02T07:53:13;23.50;;;9.52;;
46318;SDS011;32042;50.916;2.926;2023-07-02T07:55:39;20.42;;;8.98;;
46318;SDS011;32042;50.916;2.926;2023-07-02T07:58:05;21.83;;;9.25;;
46318;SDS011;32042;50.916;2.926;2023-07-02T08:00:30;18.73;;;9.93;;
46318;SDS011;32042;50.916;2.926;2023-07-02T08:02:56;21.25;;;9.43;;
46318;SDS011;32042;50.916;2.926;2023-07-02T08:05:22;18.45;;;8.30;;
46318;SDS011;32042;50.916;2.926;2023-07-02T08:07:48;20.20;;;9.45;;
46318;SDS011;32042;50.916;2.926;2023-07-02T08:10:14;28.10;;;9.23;;
46318;SDS011;32042;50.916;2.926;2023-07-02T08:12:39;17.92;;;8.05;;
46318;SDS011;32042;50.916;2.926;2023-07-02T08:15:05;15.32;;;8.15;;
46318;SDS011;32042;50.916;2.926;2023-07-02T08:17:32;19.50;;;8.95;;
46318;SDS011;32042;50.916;2.926;2023-07-02T08:19:59;16.90;;;7.25;;
46318;SDS011;32042;50.916;2.926;2023-07-02T08:22:25;13.88;;;6.93;;
46318;SDS011;32042;50.916;2.926;2023-07-02T08:24:50;15.07;;;6.10;;
46318;SDS011;32042;50.916;2.926;2023-07-02T08:27:16;14.32;;;6.05;;
46318;SDS011;32042;50.916;2.926;2023-07-02T08:29:45;14.63;;;5.88;;
46318;SDS011;32042;50.916;2.926;2023-07-02T08:32:14;14.15;;;6.78;;
46318;SDS011;32042;50.916;2.926;2023-07-02T08:34:40;16.30;;;6.20;;
46318;SDS011;32042;50.916;2.926;2023-07-02T08:37:06;13.68;;;6.78;;
46318;SDS011;32042;50.916;2.926;2023-07-02T08:39:32;13.55;;;6.18;;
46318;SDS011;32042;50.916;2.926;2023-07-02T08:41:58;10.88;;;5.68;;
46318;SDS011;32042;50.916;2.926;2023-07-02T08:44:24;15.38;;;6.40;;
46318;SDS011;32042;50.916;2.926;2023-07-02T08:46:51;12.75;;;5.60;;
46318;SDS011;32042;50.916;2.926;2023-07-02T08:49:20;10.95;;;5.63;;
46318;SDS011;32042;50.916;2.926;2023-07-02T08:51:46;11.35;;;5.30;;
46318;SDS011;32042;50.916;2.926;2023-07-02T08:54:13;11.32;;;5.60;;
46318;SDS011;32042;50.916;2.926;2023-07-02T08:56:39;12.00;;;5.75;;
46318;SDS011;32042;50.916;2.926;2023-07-02T08:59:08;14.07;;;6.18;;
46318;SDS011;32042;50.916;2.926;2023-07-02T09:01:47;8.95;;;5.55;;
46318;SDS011;32042;50.916;2.926;2023-07-02T09:04:21;14.00;;;5.63;;
46318;SDS011;32042;50.916;2.926;2023-07-02T09:06:49;11.52;;;6.20;;
46318;SDS011;32042;50.916;2.926;2023-07-02T09:09:28;9.15;;;5.88;;
46318;SDS011;32042;50.916;2.926;2023-07-02T09:11:55;13.23;;;7.10;;
46318;SDS011;32042;50.916;2.926;2023-07-02T09:14:24;14.60;;;6.28;;
46318;SDS011;32042;50.916;2.926;2023-07-02T09:19:30;12.77;;;6.18;;
46318;SDS011;32042;50.916;2.926;2023-07-02T09:21:57;14.93;;;6.57;;
46318;SDS011;32042;50.916;2.926;2023-07-02T09:24:27;13.25;;;6.60;;
46318;SDS011;32042;50.916;2.926;2023-07-02T09:27:00;11.93;;;6.22;;
46318;SDS011;32042;50.916;2.926;2023-07-02T09:29:27;10.45;;;6.40;;
46318;SDS011;32042;50.916;2.926;2023-07-02T09:31:58;14.02;;;6.10;;
46318;SDS011;32042;50.916;2.926;2023-07-02T09:34:32;13.65;;;6.70;;
46318;SDS011;32042;50.916;2.926;2023-07-02T09:37:02;11.00;;;6.22;;
46318;SDS011;32042;50.916;2.926;2023-07-02T09:39:33;11.77;;;5.82;;
46318;SDS011;32042;50.916;2.926;2023-07-02T09:42:00;10.00;;;5.93;;
46318;SDS011;32042;50.916;2.926;2023-07-02T09:44:30;11.63;;;4.88;;
46318;SDS011;32042;50.916;2.926;2023-07-02T09:47:01;8.70;;;5.55;;
46318;SDS011;32042;50.916;2.926;2023-07-02T09:49:31;11.95;;;6.00;;
46318;SDS011;32042;50.916;2.926;2023-07-02T09:52:05;10.38;;;5.25;;
46318;SDS011;32042;50.916;2.926;2023-07-02T09:54:32;10.10;;;5.70;;
46318;SDS011;32042;50.916;2.926;2023-07-02T09:56:59;10.43;;;6.13;;
46318;SDS011;32042;50.916;2.926;2023-07-02T09:59:25;12.18;;;6.95;;
46318;SDS011;32042;50.916;2.926;2023-07-02T10:01:52;12.68;;;5.68;;
46318;SDS011;32042;50.916;2.926;2023-07-02T10:04:18;12.32;;;5.30;;
46318;SDS011;32042;50.916;2.926;2023-07-02T10:06:46;11.90;;;5.25;;
46318;SDS011;32042;50.916;2.926;2023-07-02T10:09:20;10.38;;;5.45;;
46318;SDS011;32042;50.916;2.926;2023-07-02T10:11:47;7.88;;;4.85;;
46318;SDS011;32042;50.916;2.926;2023-07-02T10:14:13;8.40;;;4.63;;
46318;SDS011;32042;50.916;2.926;2023-07-02T10:16:52;13.13;;;5.00;;
46318;SDS011;32042;50.916;2.926;2023-07-02T10:19:18;10.68;;;4.60;;
46318;SDS011;32042;50.916;2.926;2023-07-02T10:21:44;10.75;;;5.13;;
46318;SDS011;32042;50.916;2.926;2023-07-02T10:24:17;10.70;;;5.30;;
46318;SDS011;32042;50.916;2.926;2023-07-02T10:26:53;9.30;;;4.85;;
46318;SDS011;32042;50.916;2.926;2023-07-02T10:29:21;12.68;;;4.93;;
46318;SDS011;32042;50.916;2.926;2023-07-02T10:31:48;7.53;;;4.65;;
46318;SDS011;32042;50.916;2.926;2023-07-02T10:34:14;8.23;;;4.70;;
46318;SDS011;32042;50.916;2.926;2023-07-02T10:36:40;13.23;;;5.32;;
46318;SDS011;32042;50.916;2.926;2023-07-02T10:39:06;8.52;;;4.97;;
46318;SDS011;32042;50.916;2.926;2023-07-02T10:41:33;8.02;;;4.40;;
46318;SDS011;32042;50.916;2.926;2023-07-02T10:44:06;9.30;;;4.35;;
46318;SDS011;32042;50.916;2.926;2023-07-02T10:46:33;10.70;;;5.10;;
46318;SDS011;32042;50.916;2.926;2023-07-02T10:48:59;10.73;;;5.32;;
46318;SDS011;32042;50.916;2.926;2023-07-02T10:51:25;12.52;;;5.38;;
46318;SDS011;32042;50.916;2.926;2023-07-02T10:54:00;9.07;;;4.88;;
46318;SDS011;32042;50.916;2.926;2023-07-02T10:56:29;9.25;;;4.68;;
46318;SDS011;32042;50.916;2.926;2023-07-02T10:58:55;8.85;;;4.55;;
46318;SDS011;32042;50.916;2.926;2023-07-02T11:01:22;10.70;;;5.10;;
46318;SDS011;32042;50.916;2.926;2023-07-02T11:04:03;9.60;;;4.40;;
46318;SDS011;32042;50.916;2.926;2023-07-02T11:06:30;9.88;;;4.78;;
46318;SDS011;32042;50.916;2.926;2023-07-02T11:08:58;10.10;;;4.65;;
46318;SDS011;32042;50.916;2.926;2023-07-02T11:11:24;9.50;;;4.38;;
46318;SDS011;32042;50.916;2.926;2023-07-02T11:13:50;8.98;;;4.70;;
46318;SDS011;32042;50.916;2.926;2023-07-02T11:16:24;7.72;;;4.32;;
46318;SDS011;32042;50.916;2.926;2023-07-02T11:19:07;7.13;;;4.53;;
46318;SDS011;32042;50.916;2.926;2023-07-02T11:21:33;11.35;;;5.53;;
46318;SDS011;32042;50.916;2.926;2023-07-02T11:24:03;13.88;;;4.82;;
46318;SDS011;32042;50.916;2.926;2023-07-02T11:26:36;7.30;;;4.57;;
46318;SDS011;32042;50.916;2.926;2023-07-02T11:29:01;10.10;;;4.80;;
46318;SDS011;32042;50.916;2.926;2023-07-02T11:31:27;9.25;;;4.80;;
46318;SDS011;32042;50.916;2.926;2023-07-02T11:33:53;13.20;;;5.07;;
46318;SDS011;32042;50.916;2.926;2023-07-02T11:36:20;9.88;;;5.07;;
46318;SDS011;32042;50.916;2.926;2023-07-02T11:38:51;13.10;;;5.03;;
46318;SDS011;32042;50.916;2.926;2023-07-02T11:41:20;11.25;;;4.55;;
46318;SDS011;32042;50.916;2.926;2023-07-02T11:43:46;10.95;;;5.57;;
46318;SDS011;32042;50.916;2.926;2023-07-02T11:46:13;9.35;;;4.63;;
46318;SDS011;32042;50.916;2.926;2023-07-02T11:48:39;8.15;;;4.90;;
46318;SDS011;32042;50.916;2.926;2023-07-02T11:51:04;9.73;;;4.72;;
46318;SDS011;32042;50.916;2.926;2023-07-02T11:53:30;8.05;;;4.47;;
46318;SDS011;32042;50.916;2.926;2023-07-02T11:55:56;6.97;;;4.63;;
46318;SDS011;32042;50.916;2.926;2023-07-02T11:58:21;8.82;;;4.72;;
46318;SDS011;32042;50.916;2.926;2023-07-02T12:00:47;8.18;;;4.63;;
46318;SDS011;32042;50.916;2.926;2023-07-02T12:03:13;8.20;;;4.28;;
46318;SDS011;32042;50.916;2.926;2023-07-02T12:05:39;9.15;;;5.18;;
46318;SDS011;32042;50.916;2.926;2023-07-02T12:08:04;8.32;;;4.40;;
46318;SDS011;32042;50.916;2.926;2023-07-02T12:10:30;9.43;;;4.90;;
46318;SDS011;32042;50.916;2.926;2023-07-02T12:12:56;8.05;;;4.60;;
46318;SDS011;32042;50.916;2.926;2023-07-02T12:15:21;9.00;;;4.65;;
46318;SDS011;32042;50.916;2.926;2023-07-02T12:17:47;9.43;;;4.78;;
46318;SDS011;32042;50.916;2.926;2023-07-02T12:20:13;8.45;;;4.85;;
46318;SDS011;32042;50.916;2.926;2023-07-02T12:22:38;11.70;;;4.28;;
46318;SDS011;32042;50.916;2.926;2023-07-02T12:25:05;10.20;;;5.13;;
46318;SDS011;32042;50.916;2.926;2023-07-02T12:27:31;9.70;;;4.55;;
46318;SDS011;32042;50.916;2.926;2023-07-02T12:29:57;9.57;;;4.75;;
46318;SDS011;32042;50.916;2.926;2023-07-02T12:32:23;10.85;;;4.82;;
46318;SDS011;32042;50.916;2.926;2023-07-02T12:34:48;10.15;;;4.68;;
46318;SDS011;32042;50.916;2.926;2023-07-02T12:37:14;17.52;;;5.50;;
46318;SDS011;32042;50.916;2.926;2023-07-02T12:39:42;14.45;;;5.75;;
46318;SDS011;32042;50.916;2.926;2023-07-02T12:42:08;14.45;;;5.97;;
46318;SDS011;32042;50.916;2.926;2023-07-02T12:44:34;15.43;;;6.32;;
46318;SDS011;32042;50.916;2.926;2023-07-02T12:47:00;13.52;;;5.80;;
46318;SDS011;32042;50.916;2.926;2023-07-02T12:49:25;13.90;;;5.78;;
46318;SDS011;32042;50.916;2.926;2023-07-02T12:51:51;16.73;;;6.10;;
46318;SDS011;32042;50.916;2.926;2023-07-02T12:54:16;10.23;;;4.97;;
46318;SDS011;32042;50.916;2.926;2023-07-02T12:56:42;13.75;;;5.93;;
46318;SDS011;32042;50.916;2.926;2023-07-02T12:59:08;13.98;;;5.53;;
46318;SDS011;32042;50.916;2.926;2023-07-02T13:01:34;10.38;;;5.15;;
46318;SDS011;32042;50.916;2.926;2023-07-02T13:03:59;17.55;;;6.45;;
46318;SDS011;32042;50.916;2.926;2023-07-02T13:06:25;12.73;;;5.57;;
46318;SDS011;32042;50.916;2.926;2023-07-02T13:08:52;9.85;;;5.65;;
46318;SDS011;32042;50.916;2.926;2023-07-02T13:11:20;13.07;;;4.95;;
46318;SDS011;32042;50.916;2.926;2023-07-02T13:13:46;12.32;;;6.07;;
46318;SDS011;32042;50.916;2.926;2023-07-02T13:16:12;11.52;;;5.97;;
46318;SDS011;32042;50.916;2.926;2023-07-02T13:18:38;9.75;;;5.70;;
46318;SDS011;32042;50.916;2.926;2023-07-02T13:21:04;8.68;;;5.05;;
46318;SDS011;32042;50.916;2.926;2023-07-02T13:23:29;11.05;;;5.20;;
46318;SDS011;32042;50.916;2.926;2023-07-02T13:25:55;11.23;;;5.40;;
46318;SDS011;32042;50.916;2.926;2023-07-02T13:28:21;12.70;;;4.75;;
46318;SDS011;32042;50.916;2.926;2023-07-02T13:30:47;7.80;;;5.00;;
46318;SDS011;32042;50.916;2.926;2023-07-02T13:33:12;9.75;;;4.47;;
46318;SDS011;32042;50.916;2.926;2023-07-02T13:35:38;8.85;;;5.13;;
46318;SDS011;32042;50.916;2.926;2023-07-02T13:38:04;11.25;;;5.07;;
46318;SDS011;32042;50.916;2.926;2023-07-02T13:40:30;14.45;;;5.25;;
46318;SDS011;32042;50.916;2.926;2023-07-02T13:42:56;12.10;;;6.00;;
46318;SDS011;32042;50.916;2.926;2023-07-02T13:45:21;12.52;;;5.32;;
46318;SDS011;32042;50.916;2.926;2023-07-02T13:47:47;13.30;;;4.65;;
46318;SDS011;32042;50.916;2.926;2023-07-02T13:50:13;9.82;;;4.95;;
46318;SDS011;32042;50.916;2.926;2023-07-02T13:52:38;12.52;;;5.90;;
46318;SDS011;32042;50.916;2.926;2023-07-02T13:55:04;10.02;;;5.20;;
46318;SDS011;32042;50.916;2.926;2023-07-02T13:57:30;9.95;;;4.63;;
46318;SDS011;32042;50.916;2.926;2023-07-02T13:59:56;13.15;;;4.55;;
46318;SDS011;32042;50.916;2.926;2023-07-02T14:02:22;10.50;;;4.20;;
46318;SDS011;32042;50.916;2.926;2023-07-02T14:04:48;14.95;;;4.35;;
46318;SDS011;32042;50.916;2.926;2023-07-02T14:07:14;10.98;;;4.30;;
46318;SDS011;32042;50.916;2.926;2023-07-02T14:09:40;8.90;;;4.45;;
46318;SDS011;32042;50.916;2.926;2023-07-02T14:12:06;10.68;;;4.35;;
46318;SDS011;32042;50.916;2.926;2023-07-02T14:14:32;8.60;;;3.72;;
46318;SDS011;32042;50.916;2.926;2023-07-02T14:16:58;14.88;;;4.85;;
46318;SDS011;32042;50.916;2.926;2023-07-02T14:19:23;9.07;;;3.63;;
46318;SDS011;32042;50.916;2.926;2023-07-02T14:21:49;13.90;;;4.43;;
46318;SDS011;32042;50.916;2.926;2023-07-02T14:24:15;8.85;;;4.20;;
46318;SDS011;32042;50.916;2.926;2023-07-02T14:26:41;13.00;;;4.20;;